createdAt,value
2016-12-06T00:00:53.897Z,87.47
2016-12-06T00:02:02.576Z,87.18
2016-12-06T00:03:11.261Z,87.56
2016-12-06T00:04:19.950Z,87.85
2016-12-06T00:05:28.631Z,87.85
2016-12-06T00:06:37.312Z,88.46
2016-12-06T00:07:46.099Z,88.65
2016-12-06T00:08:54.781Z,88.84
2016-12-06T00:10:03.464Z,89.78
2016-12-06T00:11:12.484Z,90.54
2016-12-06T00:12:21.487Z,91.2
2016-12-06T00:13:30.168Z,91.77
2016-12-06T00:14:38.855Z,91.49
2016-12-06T00:15:47.572Z,91.58
2016-12-06T00:16:56.252Z,93.28
2016-12-06T00:18:04.935Z,92.71
2016-12-06T00:19:13.620Z,92.71
2016-12-06T00:20:22.300Z,92.9
2016-12-06T00:21:30.985Z,92.9
2016-12-06T00:22:39.673Z,92.71
2016-12-06T00:23:48.680Z,92.43
2016-12-06T00:24:57.363Z,92.24
2016-12-06T00:26:06.044Z,92.05
2016-12-06T00:27:14.725Z,92.8
2016-12-06T00:28:23.401Z,93.18
2016-12-06T00:29:32.084Z,92.9
2016-12-06T00:30:40.766Z,92.52
2016-12-06T00:31:49.448Z,92.43
2016-12-06T00:32:58.131Z,92.52
2016-12-06T00:34:06.813Z,92.43
2016-12-06T00:35:15.499Z,92.8
2016-12-06T00:36:24.177Z,93.09
2016-12-06T00:37:32.865Z,93.18
2016-12-06T00:38:41.548Z,92.9
2016-12-06T00:39:50.230Z,92.8
2016-12-06T00:40:58.912Z,92.33
2016-12-06T00:42:07.593Z,92.33
2016-12-06T00:43:16.279Z,91.96
2016-12-06T00:44:24.969Z,91.86
2016-12-06T00:45:33.655Z,91.96
2016-12-06T00:46:42.337Z,92.52
2016-12-06T00:47:51.393Z,92.24
2016-12-06T00:49:00.394Z,92.05
2016-12-06T00:50:09.078Z,92.33
2016-12-06T00:51:18.088Z,92.14
2016-12-06T00:52:26.769Z,92.61
2016-12-06T00:53:35.457Z,92.33
2016-12-06T00:54:44.166Z,92.52
2016-12-06T00:55:53.169Z,92.43
2016-12-06T00:57:01.862Z,91.96
2016-12-06T00:58:10.550Z,92.14
2016-12-06T00:59:19.229Z,91.2
2016-12-06T01:00:27.913Z,91.58
2016-12-06T01:01:36.591Z,91.96
2016-12-06T01:02:45.273Z,91.77
2016-12-06T01:03:53.950Z,91.2
2016-12-06T01:05:02.643Z,91.49
2016-12-06T01:06:11.327Z,92.14
2016-12-06T01:07:20.013Z,92.14
2016-12-06T01:08:29.007Z,92.14
2016-12-06T01:09:37.687Z,91.67
2016-12-06T01:10:46.364Z,91.77
2016-12-06T01:11:55.045Z,92.24
2016-12-06T01:13:03.723Z,92.43
2016-12-06T01:14:12.727Z,91.96
2016-12-06T01:15:21.409Z,92.52
2016-12-06T01:16:30.104Z,92.52
2016-12-06T01:17:38.783Z,91.3
2016-12-06T01:18:47.469Z,90.73
2016-12-06T01:19:56.179Z,89.59
2016-12-06T01:21:04.868Z,89.4
2016-12-06T01:22:13.577Z,89.5
2016-12-06T01:23:22.257Z,89.4
2016-12-06T01:24:30.954Z,88.65
2016-12-06T01:25:39.641Z,89.69
2016-12-06T01:26:48.377Z,89.4
2016-12-06T01:27:57.053Z,89.5
2016-12-06T01:29:05.736Z,89.31
2016-12-06T01:30:14.415Z,89.5
2016-12-06T01:31:23.102Z,89.22
2016-12-06T01:32:31.787Z,88.75
2016-12-06T01:33:40.476Z,88.65
2016-12-06T01:34:49.158Z,89.12
2016-12-06T01:35:57.843Z,89.03
2016-12-06T01:37:06.528Z,89.12
2016-12-06T01:38:15.213Z,89.31
2016-12-06T01:39:23.914Z,89.59
2016-12-06T01:40:32.595Z,89.31
2016-12-06T01:41:41.280Z,89.22
2016-12-06T01:42:49.963Z,88.75
2016-12-06T01:43:58.643Z,89.97
2016-12-06T01:45:07.361Z,89.88
2016-12-06T01:46:16.042Z,90.92
2016-12-06T01:47:24.724Z,91.11
2016-12-06T01:48:33.403Z,91.67
2016-12-06T01:49:42.123Z,91.58
2016-12-06T01:50:50.802Z,90.54
2016-12-06T01:51:59.483Z,90.54
2016-12-06T01:53:08.483Z,91.53
2016-12-06T01:54:17.162Z,92.1
2016-12-06T01:55:25.842Z,92.85
2016-12-06T01:56:34.529Z,93.23
2016-12-06T01:57:43.210Z,92.33
2016-12-06T01:58:51.890Z,91.77
2016-12-06T02:00:00.578Z,90.64
2016-12-06T02:01:09.263Z,90.54
2016-12-06T02:02:17.948Z,90.82
2016-12-06T02:03:26.624Z,91.01
2016-12-06T02:04:35.304Z,91.49
2016-12-06T02:05:43.983Z,91.67
2016-12-06T02:06:52.664Z,91.39
2016-12-06T02:08:01.347Z,91.49
2016-12-06T02:09:10.062Z,91.01
2016-12-06T02:10:18.749Z,91.39
2016-12-06T02:11:27.436Z,91.72
2016-12-06T02:12:36.115Z,92.24
2016-12-06T02:13:44.804Z,92.05
2016-12-06T02:14:53.485Z,91.86
2016-12-06T02:16:02.174Z,91.58
2016-12-06T02:17:10.853Z,92.14
2016-12-06T02:18:19.533Z,91.01
2016-12-06T02:19:28.223Z,90.73
2016-12-06T02:20:36.905Z,90.82
2016-12-06T02:21:45.586Z,91.86
2016-12-06T02:22:54.268Z,91.11
2016-12-06T02:24:02.953Z,91.01
2016-12-06T02:25:11.960Z,91.11
2016-12-06T02:26:20.950Z,90.92
2016-12-06T02:27:29.633Z,91.77
2016-12-06T02:28:38.311Z,91.86
2016-12-06T02:29:46.993Z,92.19
2016-12-06T02:30:55.678Z,92.38
2016-12-06T02:32:04.360Z,92.52
2016-12-06T02:33:13.044Z,92.71
2016-12-06T02:34:21.726Z,91.96
2016-12-06T02:35:30.416Z,92.33
2016-12-06T02:36:39.099Z,91.2
2016-12-06T02:37:47.779Z,91.01
2016-12-06T02:38:56.465Z,90.35
2016-12-06T02:40:05.147Z,89.78
2016-12-06T02:41:13.825Z,89.93
2016-12-06T02:42:22.506Z,90.02
2016-12-06T02:43:31.190Z,90.31
2016-12-06T02:44:39.872Z,90.31
2016-12-06T02:45:48.582Z,90.87
2016-12-06T02:46:57.264Z,90.97
2016-12-06T02:48:05.941Z,91.16
2016-12-06T02:49:14.625Z,91.63
2016-12-06T02:50:23.306Z,92.29
2016-12-06T02:51:31.991Z,92.47
2016-12-06T02:52:40.669Z,92.47
2016-12-06T02:53:49.349Z,92.38
2016-12-06T02:54:58.031Z,92.1
2016-12-06T02:56:07.042Z,91.77
2016-12-06T02:57:15.728Z,90.64
2016-12-06T02:58:24.413Z,89.69
2016-12-06T02:59:33.092Z,90.26
2016-12-06T03:00:41.772Z,90.21
2016-12-06T03:01:50.455Z,90.5
2016-12-06T03:02:59.132Z,91.44
2016-12-06T03:04:07.814Z,91.16
2016-12-06T03:05:16.497Z,91.44
2016-12-06T03:06:25.496Z,91.72
2016-12-06T03:07:34.176Z,92.29
2016-12-06T03:08:42.860Z,91.63
2016-12-06T03:09:51.544Z,91.63
2016-12-06T03:11:00.381Z,92.38
2016-12-06T03:12:09.061Z,92.29
2016-12-06T03:13:17.746Z,92.1
2016-12-06T03:14:26.428Z,91.25
2016-12-06T03:15:35.115Z,91.3
2016-12-06T03:16:43.793Z,90.64
2016-12-06T03:17:52.472Z,90.92
2016-12-06T03:19:01.161Z,90.54
2016-12-06T03:20:09.844Z,90.64
2016-12-06T03:21:18.847Z,90.45
2016-12-06T03:22:27.902Z,90.26
2016-12-06T03:23:36.582Z,90.16
2016-12-06T03:24:45.268Z,89.97
2016-12-06T03:25:53.950Z,90.26
2016-12-06T03:27:02.654Z,90.07
2016-12-06T03:28:11.650Z,90.35
2016-12-06T03:29:20.332Z,89.69
2016-12-06T03:30:29.012Z,89.78
2016-12-06T03:31:37.693Z,89.97
2016-12-06T03:32:46.380Z,89.78
2016-12-06T03:33:55.059Z,89.97
2016-12-06T03:35:03.747Z,89.12
2016-12-06T03:36:12.424Z,89.59
2016-12-06T03:37:21.108Z,88.75
2016-12-06T03:38:29.787Z,89.22
2016-12-06T03:39:38.470Z,89.22
2016-12-06T03:40:47.462Z,89.31
2016-12-06T03:41:56.141Z,89.4
2016-12-06T03:43:05.138Z,88.65
2016-12-06T03:44:13.826Z,88.75
2016-12-06T03:45:22.822Z,89.59
2016-12-06T03:46:31.504Z,89.31
2016-12-06T03:47:40.500Z,89.59
2016-12-06T03:48:49.184Z,89.78
2016-12-06T03:49:57.869Z,88.75
2016-12-06T03:51:06.875Z,88.75
2016-12-06T03:52:15.560Z,88.93
2016-12-06T03:53:24.243Z,88.84
2016-12-06T03:54:32.924Z,88.65
2016-12-06T03:55:41.606Z,88.28
2016-12-06T03:56:50.320Z,87.8
2016-12-06T03:57:59.010Z,87.9
2016-12-06T03:59:07.697Z,87.43
2016-12-06T04:00:16.375Z,87.33
2016-12-06T04:01:25.062Z,87.43
2016-12-06T04:02:33.742Z,87.33
2016-12-06T04:03:42.424Z,87.33
2016-12-06T04:04:51.108Z,87.43
2016-12-06T04:05:59.792Z,87.14
2016-12-06T04:07:08.472Z,87.33
2016-12-06T04:08:17.165Z,87.43
2016-12-06T04:09:25.847Z,86.95
2016-12-06T04:10:34.528Z,87.52
2016-12-06T04:11:43.214Z,87.52
2016-12-06T04:12:51.897Z,87.33
2016-12-06T04:14:00.579Z,86.67
2016-12-06T04:15:09.265Z,86.67
2016-12-06T04:16:17.946Z,86.38
2016-12-06T04:17:26.628Z,86.48
2016-12-06T04:18:35.307Z,86.76
2016-12-06T04:19:43.990Z,86.67
2016-12-06T04:20:52.670Z,86.76
2016-12-06T04:22:01.362Z,86.86
2016-12-06T04:23:10.041Z,87.24
2016-12-06T04:24:18.726Z,87.43
2016-12-06T04:25:27.404Z,87.14
2016-12-06T04:26:36.089Z,86.95
2016-12-06T04:27:44.771Z,87.33
2016-12-06T04:28:53.450Z,87.24
2016-12-06T04:30:02.132Z,87.05
2016-12-06T04:31:11.140Z,87.14
2016-12-06T04:32:19.825Z,87.24
2016-12-06T04:33:28.507Z,86.86
2016-12-06T04:34:37.196Z,86.86
2016-12-06T04:35:45.881Z,86.48
2016-12-06T04:36:54.570Z,86.57
2016-12-06T04:38:03.252Z,87.14
2016-12-06T04:39:11.937Z,87.14
2016-12-06T04:40:20.624Z,87.62
2016-12-06T04:41:29.309Z,87.24
2016-12-06T04:42:37.990Z,87.52
2016-12-06T04:43:46.999Z,87.14
2016-12-06T04:44:55.676Z,86.67
2016-12-06T04:46:04.360Z,86.67
2016-12-06T04:47:13.043Z,86.57
2016-12-06T04:48:21.726Z,87.14
2016-12-06T04:49:30.409Z,87.52
2016-12-06T04:50:39.091Z,87.43
2016-12-06T04:51:47.785Z,87.43
2016-12-06T04:52:56.774Z,87.43
2016-12-06T04:54:05.464Z,87.43
2016-12-06T04:55:14.173Z,86.95
2016-12-06T04:56:22.852Z,87.05
2016-12-06T04:57:31.538Z,87.52
2016-12-06T04:58:40.535Z,87.43
2016-12-06T04:59:49.219Z,87.43
2016-12-06T05:00:57.907Z,87.99
2016-12-06T05:02:06.586Z,87.52
2016-12-06T05:03:15.265Z,87.71
2016-12-06T05:04:23.957Z,87.47
2016-12-06T05:05:32.694Z,87.14
2016-12-06T05:06:41.407Z,87.33
2016-12-06T05:07:50.109Z,87.24
2016-12-06T05:08:58.784Z,87.47
2016-12-06T05:10:07.473Z,87.09
2016-12-06T05:11:16.153Z,86.62
2016-12-06T05:12:24.838Z,87.66
2016-12-06T05:13:33.523Z,87.09
2016-12-06T05:14:42.204Z,86.8
2016-12-06T05:15:50.890Z,86.62
2016-12-06T05:16:59.568Z,86.71
2016-12-06T05:18:08.256Z,86.57
2016-12-06T05:19:16.938Z,87.37
2016-12-06T05:20:25.632Z,87.43
2016-12-06T05:21:34.316Z,87.71
2016-12-06T05:22:42.998Z,87.8
2016-12-06T05:23:51.680Z,87.33
2016-12-06T05:25:00.361Z,87.05
2016-12-06T05:26:09.059Z,87.05
2016-12-06T05:27:17.738Z,87.99
2016-12-06T05:28:26.424Z,87.05
2016-12-06T05:29:35.108Z,87.24
2016-12-06T05:30:43.793Z,87.43
2016-12-06T05:31:52.480Z,87.43
2016-12-06T05:33:01.161Z,87.43
2016-12-06T05:34:09.846Z,87.62
2016-12-06T05:35:18.529Z,87.8
2016-12-06T05:36:27.212Z,87.9
2016-12-06T05:37:35.893Z,87.43
2016-12-06T05:38:44.585Z,87.71
2016-12-06T05:39:53.265Z,86.95
2016-12-06T05:41:01.951Z,87.62
2016-12-06T05:42:10.643Z,87.66
2016-12-06T05:43:19.362Z,87.33
2016-12-06T05:44:28.046Z,86.95
2016-12-06T05:45:36.724Z,86.95
2016-12-06T05:46:45.407Z,86.99
2016-12-06T05:47:54.094Z,87.28
2016-12-06T05:49:03.093Z,86.33
2016-12-06T05:50:11.774Z,86.9
2016-12-06T05:51:20.461Z,86.71
2016-12-06T05:52:29.141Z,86.99
2016-12-06T05:53:38.139Z,87.28
2016-12-06T05:54:46.834Z,87.37
2016-12-06T05:55:55.540Z,86.62
2016-12-06T05:57:04.225Z,86.71
2016-12-06T05:58:12.906Z,86.71
2016-12-06T05:59:21.911Z,86.99
2016-12-06T06:00:30.601Z,86.99
2016-12-06T06:01:39.282Z,86.99
2016-12-06T06:02:47.966Z,86.71
2016-12-06T06:03:56.648Z,87.47
2016-12-06T06:05:05.331Z,87.47
2016-12-06T06:06:14.332Z,87.18
2016-12-06T06:07:23.042Z,87.56
2016-12-06T06:08:31.726Z,87.24
2016-12-06T06:09:40.442Z,87.05
2016-12-06T06:10:49.127Z,87.18
2016-12-06T06:11:57.812Z,87.37
2016-12-06T06:13:06.494Z,86.9
2016-12-06T06:14:15.182Z,86.99
2016-12-06T06:15:23.864Z,86.62
2016-12-06T06:16:32.545Z,86.62
2016-12-06T06:17:41.223Z,86.9
2016-12-06T06:18:49.903Z,86.52
2016-12-06T06:19:58.594Z,86.33
2016-12-06T06:21:07.905Z,86.33
2016-12-06T06:22:16.599Z,86.33
2016-12-06T06:23:25.282Z,86.43
2016-12-06T06:24:33.965Z,86.33
2016-12-06T06:25:42.652Z,86.43
2016-12-06T06:26:51.334Z,86.57
2016-12-06T06:28:00.021Z,86.99
2016-12-06T06:29:08.706Z,86.57
2016-12-06T06:30:17.389Z,86.95
2016-12-06T06:31:26.072Z,86.48
2016-12-06T06:32:34.757Z,86.95
2016-12-06T06:33:43.436Z,86.95
2016-12-06T06:34:52.431Z,87.33
2016-12-06T06:36:01.112Z,87.05
2016-12-06T06:37:09.801Z,86.48
2016-12-06T06:38:18.516Z,86.86
2016-12-06T06:39:27.194Z,86.52
2016-12-06T06:40:35.906Z,86.43
2016-12-06T06:41:44.591Z,86.15
2016-12-06T06:42:53.331Z,86.15
2016-12-06T06:44:02.012Z,85.49
2016-12-06T06:45:10.704Z,85.77
2016-12-06T06:46:19.413Z,85.2
2016-12-06T06:47:28.100Z,85.39
2016-12-06T06:48:36.784Z,85.49
2016-12-06T06:49:45.467Z,85.39
2016-12-06T06:50:54.150Z,85.3
2016-12-06T06:52:02.832Z,85.39
2016-12-06T06:53:11.543Z,84.92
2016-12-06T06:54:20.226Z,85.11
2016-12-06T06:55:29.240Z,84.92
2016-12-06T06:56:37.924Z,85.39
2016-12-06T06:57:46.606Z,84.26
2016-12-06T06:58:55.282Z,84.35
2016-12-06T07:00:03.966Z,84.16
2016-12-06T07:01:12.656Z,83.88
2016-12-06T07:02:21.338Z,83.88
2016-12-06T07:03:30.022Z,83.97
2016-12-06T07:04:38.710Z,83.4
2016-12-06T07:05:47.392Z,84.07
2016-12-06T07:06:56.072Z,83.88
2016-12-06T07:08:04.758Z,83.03
2016-12-06T07:09:13.438Z,83.03
2016-12-06T07:10:22.148Z,83.03
2016-12-06T07:11:30.828Z,82.93
2016-12-06T07:12:39.510Z,83.22
2016-12-06T07:13:48.192Z,83.4
2016-12-06T07:14:56.869Z,83.59
2016-12-06T07:16:05.553Z,83.5
2016-12-06T07:17:14.233Z,83.59
2016-12-06T07:18:22.916Z,83.4
2016-12-06T07:19:31.595Z,83.88
2016-12-06T07:20:40.274Z,83.4
2016-12-06T07:21:48.976Z,83.31
2016-12-06T07:22:57.972Z,83.88
2016-12-06T07:24:07.284Z,83.69
2016-12-06T07:25:15.969Z,83.78
2016-12-06T07:26:24.653Z,83.12
2016-12-06T07:27:33.343Z,83.03
2016-12-06T07:28:42.021Z,83.78
2016-12-06T07:29:51.017Z,83.69
2016-12-06T07:30:59.698Z,83.22
2016-12-06T07:32:08.389Z,83.97
2016-12-06T07:33:17.073Z,83.4
2016-12-06T07:34:25.761Z,82.65
2016-12-06T07:35:34.441Z,83.03
2016-12-06T07:36:43.132Z,83.03
2016-12-06T07:37:52.130Z,82.84
2016-12-06T07:39:00.814Z,82.46
2016-12-06T07:40:09.816Z,82.56
2016-12-06T07:41:18.529Z,82.28
2016-12-06T07:42:27.212Z,82.28
2016-12-06T07:43:35.893Z,82.56
2016-12-06T07:44:44.580Z,82.84
2016-12-06T07:45:53.256Z,83.03
2016-12-06T07:47:01.937Z,83.12
2016-12-06T07:48:10.628Z,82.93
2016-12-06T07:49:19.322Z,83.03
2016-12-06T07:50:28.005Z,82.84
2016-12-06T07:51:36.688Z,82.93
2016-12-06T07:52:45.376Z,83.03
2016-12-06T07:53:54.061Z,82.46
2016-12-06T07:55:02.743Z,83.12
2016-12-06T07:56:11.751Z,82.65
2016-12-06T07:57:20.439Z,83.59
2016-12-06T07:58:29.119Z,83.69
2016-12-06T07:59:37.807Z,83.22
2016-12-06T08:00:46.491Z,84.16
2016-12-06T08:01:55.193Z,84.64
2016-12-06T08:03:03.875Z,84.73
2016-12-06T08:04:12.872Z,85.01
2016-12-06T08:05:21.554Z,85.01
2016-12-06T08:06:30.244Z,85.96
2016-12-06T08:07:38.931Z,84.73
2016-12-06T08:08:47.615Z,84.92
2016-12-06T08:09:56.304Z,84.45
2016-12-06T08:11:05.104Z,84.45
2016-12-06T08:12:13.795Z,84.07
2016-12-06T08:13:22.478Z,83.69
2016-12-06T08:14:31.211Z,84.26
2016-12-06T08:15:39.892Z,84.26
2016-12-06T08:16:48.576Z,83.59
2016-12-06T08:17:57.287Z,83.12
2016-12-06T08:19:05.975Z,82.84
2016-12-06T08:20:14.664Z,83.03
2016-12-06T08:21:23.342Z,82.93
2016-12-06T08:22:32.027Z,82.93
2016-12-06T08:23:40.745Z,82.09
2016-12-06T08:24:49.463Z,81.99
2016-12-06T08:25:58.473Z,81.9
2016-12-06T08:27:07.158Z,81.04
2016-12-06T08:28:16.153Z,81.33
2016-12-06T08:29:24.835Z,81.04
2016-12-06T08:30:33.521Z,81.04
2016-12-06T08:31:42.207Z,81.23
2016-12-06T08:32:50.890Z,81.27
2016-12-06T08:33:59.571Z,81.27
2016-12-06T08:35:08.256Z,80.9
2016-12-06T08:36:16.935Z,80.95
2016-12-06T08:37:25.620Z,80.99
2016-12-06T08:38:34.306Z,81.46
2016-12-06T08:39:43.021Z,81.46
2016-12-06T08:40:51.706Z,81.56
2016-12-06T08:42:00.398Z,81.46
2016-12-06T08:43:09.081Z,81.27
2016-12-06T08:44:17.762Z,81.37
2016-12-06T08:45:26.449Z,81.18
2016-12-06T08:46:35.133Z,81.46
2016-12-06T08:47:43.824Z,81.27
2016-12-06T08:48:52.534Z,80.99
2016-12-06T08:50:01.216Z,81.27
2016-12-06T08:51:09.931Z,81.09
2016-12-06T08:52:18.641Z,80.9
2016-12-06T08:53:27.323Z,81.09
2016-12-06T08:54:36.009Z,81.18
2016-12-06T08:55:44.688Z,80.9
2016-12-06T08:56:53.371Z,81.18
2016-12-06T08:58:02.054Z,81.27
2016-12-06T08:59:10.741Z,81.09
2016-12-06T09:00:19.426Z,80.43
2016-12-06T09:01:28.104Z,79.86
2016-12-06T09:02:36.784Z,79.95
2016-12-06T09:03:45.466Z,79.19
2016-12-06T09:04:54.147Z,79.48
2016-12-06T09:06:02.831Z,79.67
2016-12-06T09:07:11.516Z,79.38
2016-12-06T09:08:20.200Z,80.43
2016-12-06T09:09:28.888Z,80.14
2016-12-06T09:10:37.571Z,80.05
2016-12-06T09:11:46.274Z,79.86
2016-12-06T09:12:54.955Z,79.48
2016-12-06T09:14:03.636Z,78.63
2016-12-06T09:15:12.353Z,77.97
2016-12-06T09:16:21.068Z,77.87
2016-12-06T09:17:29.755Z,77.87
2016-12-06T09:18:38.441Z,77.5
2016-12-06T09:19:47.156Z,76.74
2016-12-06T09:20:55.837Z,76.83
2016-12-06T09:22:04.524Z,77.21
2016-12-06T09:23:13.214Z,77.12
2016-12-06T09:24:21.896Z,77.12
2016-12-06T09:25:30.577Z,77.5
2016-12-06T09:26:39.297Z,77.97
2016-12-06T09:27:47.985Z,77.31
2016-12-06T09:28:56.678Z,77.87
2016-12-06T09:30:05.362Z,77.5
2016-12-06T09:31:14.045Z,77.59
2016-12-06T09:32:22.725Z,77.21
2016-12-06T09:33:31.416Z,77.97
2016-12-06T09:34:40.099Z,77.12
2016-12-06T09:35:48.783Z,77.12
2016-12-06T09:36:57.467Z,77.31
2016-12-06T09:38:06.162Z,77.69
2016-12-06T09:39:14.845Z,76.83
2016-12-06T09:40:23.532Z,76.64
2016-12-06T09:41:32.214Z,77.12
2016-12-06T09:42:40.898Z,76.83
2016-12-06T09:43:49.582Z,76.83
2016-12-06T09:44:58.266Z,75.98
2016-12-06T09:46:06.960Z,76.55
2016-12-06T09:47:15.643Z,75.6
2016-12-06T09:48:24.327Z,76.36
2016-12-06T09:49:33.016Z,76.17
2016-12-06T09:50:41.699Z,76.36
2016-12-06T09:51:50.380Z,76.64
2016-12-06T09:52:59.072Z,76.45
2016-12-06T09:54:07.785Z,76.26
2016-12-06T09:55:16.472Z,76.26
2016-12-06T09:56:25.159Z,76.45
2016-12-06T09:57:33.845Z,76.26
2016-12-06T09:58:42.549Z,76.26
2016-12-06T09:59:51.236Z,76.36
2016-12-06T10:00:59.990Z,76.64
2016-12-06T10:02:08.908Z,77.02
2016-12-06T10:03:17.595Z,77.02
2016-12-06T10:04:26.278Z,77.21
2016-12-06T10:05:34.990Z,77.12
2016-12-06T10:06:43.704Z,77.12
2016-12-06T10:07:52.389Z,77.02
2016-12-06T10:09:01.072Z,77.12
2016-12-06T10:10:09.758Z,77.12
2016-12-06T10:11:18.446Z,76.93
2016-12-06T10:12:27.129Z,77.02
2016-12-06T10:13:35.808Z,76.74
2016-12-06T10:14:44.494Z,77.12
2016-12-06T10:15:53.207Z,76.83
2016-12-06T10:17:01.886Z,76.83
2016-12-06T10:18:10.607Z,77.21
2016-12-06T10:19:19.292Z,77.31
2016-12-06T10:20:27.977Z,77.4
2016-12-06T10:21:36.969Z,77.5
2016-12-06T10:22:45.659Z,77.21
2016-12-06T10:23:54.341Z,78.06
2016-12-06T10:25:03.025Z,78.25
2016-12-06T10:26:11.718Z,77.97
2016-12-06T10:27:20.403Z,77.87
2016-12-06T10:28:29.079Z,77.78
2016-12-06T10:29:38.079Z,78.16
2016-12-06T10:30:47.109Z,78.63
2016-12-06T10:31:55.793Z,79.29
2016-12-06T10:33:04.488Z,79.48
2016-12-06T10:35:21.820Z,79.95
2016-12-06T10:36:30.499Z,79.57
2016-12-06T10:37:39.495Z,80.05
2016-12-06T10:38:48.205Z,79.1
2016-12-06T10:39:56.885Z,79.19
2016-12-06T10:41:05.568Z,78.44
2016-12-06T10:42:14.251Z,78.91
2016-12-06T10:43:22.930Z,77.78
2016-12-06T10:44:31.647Z,78.25
2016-12-06T10:45:40.369Z,78.34
2016-12-06T10:46:49.050Z,78.81
2016-12-06T10:47:57.788Z,79.38
2016-12-06T10:49:06.477Z,79.33
2016-12-06T10:50:15.161Z,78.01
2016-12-06T10:51:23.905Z,77.34
2016-12-06T10:52:32.590Z,76.5
2016-12-06T10:53:41.273Z,76.21
2016-12-06T10:54:50.312Z,76.5
2016-12-06T10:55:58.999Z,76.68
2016-12-06T10:57:07.679Z,75.83
2016-12-06T10:58:16.361Z,75.02
2016-12-06T10:59:25.049Z,75.12
2016-12-06T11:00:33.735Z,74.74
2016-12-06T11:01:42.427Z,74.64
2016-12-06T11:02:51.113Z,74.45
2016-12-06T11:03:59.807Z,75.31
2016-12-06T11:05:08.492Z,75.26
2016-12-06T11:06:17.185Z,75.12
2016-12-06T11:07:25.876Z,74.51
2016-12-06T11:08:34.565Z,74.07
2016-12-06T11:09:43.250Z,73.5
2016-12-06T11:10:51.987Z,72.18
2016-12-06T11:12:00.679Z,71.99
2016-12-06T11:13:09.382Z,72.09
2016-12-06T11:14:18.076Z,71.33
2016-12-06T11:15:26.756Z,70.42
2016-12-06T11:16:35.442Z,70.32
2016-12-06T11:17:44.135Z,70.32
2016-12-06T11:18:52.852Z,70.67
2016-12-06T11:20:01.542Z,72.18
2016-12-06T11:21:10.223Z,73.6
2016-12-06T11:22:18.906Z,73.98
2016-12-06T11:23:27.588Z,74.6
2016-12-06T11:24:36.273Z,74.45
2016-12-06T11:25:44.961Z,72.85
2016-12-06T11:26:53.668Z,71.99
2016-12-06T11:28:02.359Z,72.41
2016-12-06T11:29:11.045Z,72.37
2016-12-06T11:30:19.737Z,71.65
2016-12-06T11:31:28.421Z,71.65
2016-12-06T11:32:37.106Z,72.12
2016-12-06T11:33:46.106Z,71.74
2016-12-06T11:34:54.804Z,71.99
2016-12-06T11:36:03.532Z,73.22
2016-12-06T11:37:12.228Z,72.85
2016-12-06T11:38:20.913Z,72.66
2016-12-06T11:39:29.597Z,73.79
2016-12-06T11:40:38.285Z,75.4
2016-12-06T11:41:47.006Z,75.78
2016-12-06T11:42:55.694Z,76.15
2016-12-06T11:44:04.696Z,76.44
2016-12-06T11:45:13.386Z,76.34
2016-12-06T11:46:22.084Z,76.72
2016-12-06T11:47:30.774Z,76.25
2016-12-06T11:48:39.460Z,76.34
2016-12-06T11:49:48.152Z,75.83
2016-12-06T11:50:56.840Z,75.74
2016-12-06T11:52:05.526Z,76.59
2016-12-06T11:53:14.217Z,75.74
2016-12-06T11:54:22.923Z,75.64
2016-12-06T11:55:31.607Z,74.88
2016-12-06T11:56:40.289Z,73.94
2016-12-06T11:57:49.288Z,74.22
2016-12-06T11:58:58.024Z,74.22
2016-12-06T12:00:06.715Z,72.09
2016-12-06T12:01:15.403Z,70.1
2016-12-06T12:02:24.091Z,68.52
2016-12-06T12:03:32.778Z,68.24
2016-12-06T12:04:41.468Z,68.33
2016-12-06T12:05:50.153Z,69.15
2016-12-06T12:06:58.849Z,69
2016-12-06T12:08:07.539Z,69.09
2016-12-06T12:09:16.220Z,68.52
2016-12-06T12:10:25.223Z,68.33
2016-12-06T12:11:33.913Z,69.53
2016-12-06T12:12:42.604Z,69.53
2016-12-06T12:13:51.302Z,69.34
2016-12-06T12:14:59.989Z,68.05
2016-12-06T12:16:08.674Z,67.58
2016-12-06T12:17:17.367Z,66.76
2016-12-06T12:18:26.059Z,66.76
2016-12-06T12:19:34.741Z,66.67
2016-12-06T12:20:43.432Z,67.05
2016-12-06T12:21:52.114Z,66.95
2016-12-06T12:23:00.804Z,66.95
2016-12-06T12:24:09.519Z,66.09
2016-12-06T12:25:18.206Z,66.67
2016-12-06T12:26:26.992Z,66.19
2016-12-06T12:27:35.675Z,66.28
2016-12-06T12:28:44.368Z,66.09
2016-12-06T12:29:53.081Z,65.91
2016-12-06T12:31:01.780Z,65.72
2016-12-06T12:32:10.471Z,66.57
2016-12-06T12:33:19.159Z,66.57
2016-12-06T12:34:27.855Z,66.28
2016-12-06T12:35:36.542Z,66.76
2016-12-06T12:36:45.232Z,66.57
2016-12-06T12:37:53.918Z,67.33
2016-12-06T12:39:02.608Z,67.71
2016-12-06T12:40:11.292Z,67.96
2016-12-06T12:41:20.298Z,68.62
2016-12-06T12:42:28.987Z,68.52
2016-12-06T12:43:37.677Z,68.46
2016-12-06T12:44:46.369Z,68.37
2016-12-06T12:45:55.059Z,68.84
2016-12-06T12:47:03.762Z,69.38
2016-12-06T12:48:12.822Z,70.42
2016-12-06T12:49:21.508Z,70.98
2016-12-06T12:50:30.521Z,71.23
2016-12-06T12:51:39.217Z,72.28
2016-12-06T12:52:47.910Z,73.5
2016-12-06T12:53:56.597Z,74.41
2016-12-06T12:55:05.294Z,75.26
2016-12-06T12:56:13.985Z,75.74
2016-12-06T12:57:22.997Z,76.68
2016-12-06T12:58:31.690Z,76.78
2016-12-06T12:59:40.374Z,76.31
2016-12-06T13:00:49.065Z,76.4
2016-12-06T13:01:57.760Z,76.5
2016-12-06T13:03:06.464Z,76.12
2016-12-06T13:04:15.151Z,76.31
2016-12-06T13:05:23.839Z,76.97
2016-12-06T13:06:32.522Z,77.78
2016-12-06T13:07:41.211Z,77.59
2016-12-06T13:08:49.905Z,78.63
2016-12-06T13:09:58.910Z,78.53
2016-12-06T13:11:07.602Z,79.95
2016-12-06T13:12:16.288Z,79.76
2016-12-06T13:13:24.974Z,79.67
2016-12-06T13:14:33.665Z,79.67
2016-12-06T13:15:42.352Z,79.29
2016-12-06T13:16:51.041Z,79.76
2016-12-06T13:17:59.725Z,80.33
2016-12-06T13:19:08.419Z,80.99
2016-12-06T13:20:17.110Z,81.09
2016-12-06T13:21:25.806Z,81.37
2016-12-06T13:22:34.488Z,82.09
2016-12-06T13:23:43.192Z,82.41
2016-12-06T13:24:51.878Z,81.84
2016-12-06T13:26:00.564Z,81.71
2016-12-06T13:27:09.246Z,81.71
2016-12-06T13:28:17.930Z,81.8
2016-12-06T13:29:26.614Z,81.9
2016-12-06T13:30:35.337Z,82.28
2016-12-06T13:31:44.023Z,82.75
2016-12-06T13:32:52.706Z,82.93
2016-12-06T13:34:01.390Z,82.93
2016-12-06T13:35:10.103Z,83.12
2016-12-06T13:36:18.784Z,83.5
2016-12-06T13:37:27.464Z,83.88
2016-12-06T13:38:36.149Z,84.73
2016-12-06T13:39:44.838Z,84.16
2016-12-06T13:40:53.520Z,83.88
2016-12-06T13:42:02.207Z,84.35
2016-12-06T13:43:10.898Z,84.82
2016-12-06T13:44:19.891Z,83.88
2016-12-06T13:45:28.577Z,83.12
2016-12-06T13:46:37.258Z,82.84
2016-12-06T13:47:45.942Z,83.59
2016-12-06T13:48:54.627Z,83.88
2016-12-06T13:50:03.314Z,84.54
2016-12-06T13:51:12.325Z,85.3
2016-12-06T13:52:21.018Z,85.72
2016-12-06T13:53:30.013Z,86.24
2016-12-06T13:54:38.700Z,85.58
2016-12-06T13:55:47.382Z,85.77
2016-12-06T13:56:56.069Z,85.39
2016-12-06T13:58:04.763Z,84.92
2016-12-06T13:59:13.454Z,85.49
2016-12-06T14:00:22.133Z,84.73
2016-12-06T14:01:30.815Z,84.73
2016-12-06T14:02:39.498Z,85.11
2016-12-06T14:03:48.182Z,85.68
2016-12-06T14:04:56.864Z,85.2
2016-12-06T14:06:05.557Z,85.96
2016-12-06T14:07:14.561Z,85.96
2016-12-06T14:08:23.243Z,84.92
2016-12-06T14:09:31.924Z,84.82
2016-12-06T14:10:40.606Z,84.45
2016-12-06T14:11:49.291Z,84.82
2016-12-06T14:12:57.974Z,85.68
2016-12-06T14:14:06.666Z,85.44
2016-12-06T14:15:15.358Z,85.06
2016-12-06T14:16:24.041Z,85.63
2016-12-06T14:17:32.721Z,85.82
2016-12-06T14:18:41.406Z,85.72
2016-12-06T14:19:50.126Z,85.91
2016-12-06T14:20:58.857Z,86.29
2016-12-06T14:22:07.539Z,86.48
2016-12-06T14:23:16.223Z,86.86
2016-12-06T14:24:24.901Z,87.52
2016-12-06T14:25:33.583Z,88.18
2016-12-06T14:26:42.275Z,88.37
2016-12-06T14:27:50.957Z,88.65
2016-12-06T14:28:59.636Z,88.84
2016-12-06T14:30:08.319Z,88.75
2016-12-06T14:31:16.995Z,89.03
2016-12-06T14:32:25.679Z,88.65
2016-12-06T14:33:34.371Z,89.31
2016-12-06T14:34:43.056Z,88.84
2016-12-06T14:35:51.747Z,88.65
2016-12-06T14:37:00.428Z,88.46
2016-12-06T14:38:09.114Z,87.99
2016-12-06T14:39:17.799Z,87.43
2016-12-06T14:40:26.482Z,86.76
2016-12-06T14:41:35.168Z,87.71
2016-12-06T14:42:44.166Z,88.18
2016-12-06T14:43:52.856Z,89.31
2016-12-06T14:45:01.857Z,89.74
2016-12-06T14:46:10.548Z,90.4
2016-12-06T14:47:19.228Z,89.83
2016-12-06T14:48:27.913Z,89.83